createdAt,value
2022-08-29T00:02:18.501Z,53.42
2022-08-29T00:04:46.629Z,53.55
2022-08-29T00:07:14.533Z,53.67
2022-08-29T00:09:42.212Z,54.19
2022-08-29T00:12:10.582Z,53.96
2022-08-29T00:14:38.290Z,53.88
2022-08-29T00:17:07.295Z,54.19
2022-08-29T00:19:34.977Z,54.11
2022-08-29T00:22:02.718Z,54.49
2022-08-29T00:24:30.528Z,54.51
2022-08-29T00:27:00.248Z,54.63
2022-08-29T00:29:27.949Z,54.53
2022-08-29T00:31:55.934Z,54.52
2022-08-29T00:34:24.977Z,54.42
2022-08-29T00:36:53.455Z,54.31
2022-08-29T00:39:23.159Z,54.38
2022-08-29T00:41:51.650Z,54.41
2022-08-29T00:44:19.930Z,54.33
2022-08-29T00:46:52.808Z,54.86
2022-08-29T00:49:36.722Z,55.10
2022-08-29T00:52:09.154Z,55.07
2022-08-29T00:54:38.472Z,55.33
2022-08-29T00:57:06.829Z,55.16
2022-08-29T00:59:38.420Z,55.72
2022-08-29T01:02:08.188Z,55.81
2022-08-29T01:04:37.325Z,55.74
2022-08-29T01:07:05.368Z,56.19
2022-08-29T01:09:34.397Z,56.08
2022-08-29T01:12:16.436Z,56.14
2022-08-29T01:14:52.450Z,56.15
2022-08-29T01:17:24.925Z,56.05
2022-08-29T01:19:59.040Z,56.09
2022-08-29T01:22:37.684Z,56.43
2022-08-29T01:25:09.461Z,56.48
2022-08-29T01:27:42.738Z,56.52
2022-08-29T01:30:11.253Z,56.42
2022-08-29T01:32:38.982Z,57.12
2022-08-29T01:35:08.533Z,57.36
2022-08-29T01:37:39.416Z,57.00
2022-08-29T01:40:09.999Z,57.30
2022-08-29T01:42:37.806Z,57.70
2022-08-29T01:45:09.730Z,57.13
2022-08-29T01:47:39.922Z,57.30
2022-08-29T01:50:10.368Z,57.11
2022-08-29T01:52:38.041Z,57.07
2022-08-29T01:55:06.739Z,57.18
2022-08-29T01:57:37.869Z,56.87
2022-08-29T02:00:07.763Z,57.14
2022-08-29T02:02:35.974Z,57.65
2022-08-29T02:05:05.739Z,57.76
2022-08-29T02:07:33.419Z,58.10
2022-08-29T02:10:01.093Z,58.00
2022-08-29T02:12:31.586Z,58.17
2022-08-29T02:15:00.946Z,58.19
2022-08-29T02:17:29.614Z,57.98
2022-08-29T02:19:57.201Z,57.92
2022-08-29T02:22:24.809Z,58.58
2022-08-29T02:24:52.451Z,58.73
2022-08-29T02:27:20.079Z,58.62
2022-08-29T02:29:47.751Z,59.36
2022-08-29T02:32:16.874Z,58.60
2022-08-29T02:34:47.804Z,58.77
2022-08-29T02:37:16.580Z,59.11
2022-08-29T02:39:44.297Z,59.05
2022-08-29T02:42:12.063Z,59.45
2022-08-29T02:44:39.893Z,59.49
2022-08-29T02:47:09.268Z,59.63
2022-08-29T02:49:39.490Z,59.73
2022-08-29T02:52:08.480Z,59.54
2022-08-29T02:54:36.714Z,59.56
2022-08-29T02:57:05.005Z,59.92
2022-08-29T02:59:32.770Z,60.45
2022-08-29T03:02:00.424Z,60.85
2022-08-29T03:04:28.367Z,61.25
2022-08-29T03:06:57.828Z,61.15
2022-08-29T03:09:25.511Z,61.33
2022-08-29T03:11:56.071Z,61.79
2022-08-29T03:14:24.215Z,63.01
2022-08-29T03:16:52.073Z,63.27
2022-08-29T03:19:19.742Z,63.05
2022-08-29T03:21:47.598Z,63.00
2022-08-29T03:24:16.598Z,63.13
2022-08-29T03:26:56.922Z,63.55
2022-08-29T03:29:26.378Z,63.36
2022-08-29T03:31:58.149Z,63.37
2022-08-29T03:34:26.434Z,62.86
2022-08-29T03:36:54.541Z,63.36
2022-08-29T03:39:23.587Z,63.69
2022-08-29T03:41:51.205Z,62.77
2022-08-29T03:44:19.110Z,63.17
2022-08-29T03:46:47.323Z,64.88
2022-08-29T03:49:15.484Z,65.38
2022-08-29T03:51:43.459Z,64.33
2022-08-29T03:54:11.282Z,68.67
2022-08-29T03:56:40.505Z,67.26
2022-08-29T03:59:08.741Z,66.25
2022-08-29T04:01:36.388Z,67.04
2022-08-29T04:04:04.885Z,65.45
2022-08-29T04:06:33.765Z,66.70
2022-08-29T04:09:02.158Z,69.39
2022-08-29T04:11:29.841Z,69.81
2022-08-29T04:13:58.833Z,70.75
2022-08-29T04:16:31.094Z,70.31
2022-08-29T04:18:59.074Z,70.25
2022-08-29T04:21:27.233Z,70.49
2022-08-29T04:23:55.312Z,71.16
2022-08-29T04:26:39.193Z,72.61
2022-08-29T04:29:09.912Z,73.22
2022-08-29T04:31:39.189Z,73.92
2022-08-29T04:34:08.563Z,74.17
2022-08-29T04:36:36.798Z,75.88
2022-08-29T04:39:05.319Z,75.44
2022-08-29T04:41:33.430Z,75.10
2022-08-29T04:44:02.103Z,74.74
2022-08-29T04:46:32.107Z,74.27
2022-08-29T04:49:03.950Z,75.48
2022-08-29T04:51:32.333Z,75.32
2022-08-29T04:54:00.006Z,74.69
2022-08-29T04:56:27.666Z,75.06
2022-08-29T04:58:57.516Z,79.25
2022-08-29T05:01:27.264Z,81.95
2022-08-29T05:03:57.888Z,80.38
2022-08-29T05:06:26.653Z,78.57
2022-08-29T05:08:59.156Z,78.72
2022-08-29T05:11:29.867Z,78.05
2022-08-29T05:13:58.917Z,79.81
2022-08-29T05:16:27.347Z,78.33
2022-08-29T05:18:56.598Z,77.29
2022-08-29T05:21:27.158Z,76.51
2022-08-29T05:23:56.370Z,77.19
2022-08-29T05:26:24.590Z,76.00
2022-08-29T05:28:52.624Z,78.04
2022-08-29T05:31:22.160Z,77.28
2022-08-29T05:33:50.097Z,75.63
2022-08-29T05:36:19.354Z,75.12
2022-08-29T05:38:47.233Z,73.83
2022-08-29T05:41:14.919Z,71.43
2022-08-29T05:43:42.571Z,70.40
2022-08-29T05:46:11.290Z,69.65
2022-08-29T05:48:42.300Z,68.26
2022-08-29T05:51:16.353Z,66.55
2022-08-29T05:53:46.102Z,67.90
2022-08-29T05:56:14.075Z,68.31
2022-08-29T05:58:41.733Z,68.97
2022-08-29T06:01:09.362Z,68.85
2022-08-29T06:03:37.178Z,69.60
2022-08-29T06:06:04.988Z,70.87
2022-08-29T06:08:32.646Z,69.49
2022-08-29T06:11:01.878Z,69.61
2022-08-29T06:13:29.510Z,69.62
2022-08-29T06:15:57.755Z,70.16
2022-08-29T06:18:26.928Z,69.79
2022-08-29T06:21:05.142Z,69.40
2022-08-29T06:23:32.832Z,71.13
2022-08-29T06:26:02.161Z,70.41
2022-08-29T06:28:30.146Z,69.58
2022-08-29T06:30:58.150Z,69.07
2022-08-29T06:33:25.908Z,68.34
2022-08-29T06:35:54.008Z,66.85
2022-08-29T06:38:21.764Z,67.07
2022-08-29T06:40:49.354Z,69.74
2022-08-29T06:43:18.442Z,68.70
2022-08-29T06:45:46.085Z,67.75
2022-08-29T06:48:14.015Z,68.74
2022-08-29T06:50:45.554Z,65.89
2022-08-29T06:53:26.908Z,62.36
2022-08-29T06:55:55.860Z,60.55
2022-08-29T06:58:25.080Z,56.59
2022-08-29T07:00:52.720Z,55.45
2022-08-29T07:03:21.741Z,53.31
2022-08-29T07:05:53.301Z,51.36
2022-08-29T07:08:20.956Z,50.32
2022-08-29T07:10:48.619Z,50.21
2022-08-29T07:13:16.395Z,49.57
2022-08-29T07:15:45.593Z,50.41
2022-08-29T07:18:13.267Z,49.02
2022-08-29T07:20:41.041Z,48.51
2022-08-29T07:23:08.920Z,48.17
2022-08-29T07:25:38.703Z,48.54
2022-08-29T07:28:07.206Z,49.02
2022-08-29T07:30:35.919Z,48.38
2022-08-29T07:33:05.074Z,47.37
2022-08-29T07:35:33.339Z,46.84
2022-08-29T07:38:02.161Z,46.56
2022-08-29T07:40:29.983Z,46.29
2022-08-29T07:42:57.754Z,46.23
2022-08-29T07:45:25.427Z,46.40
2022-08-29T07:47:53.141Z,45.22
2022-08-29T07:50:22.159Z,45.71
2022-08-29T07:52:49.790Z,44.62
2022-08-29T07:55:17.794Z,45.21
2022-08-29T07:57:46.489Z,43.71
2022-08-29T08:00:14.644Z,43.84
2022-08-29T08:02:42.358Z,43.00
2022-08-29T08:05:10.435Z,43.21
2022-08-29T08:07:40.327Z,44.30
2022-08-29T08:10:09.839Z,43.43
2022-08-29T08:12:37.548Z,44.40
2022-08-29T08:15:05.935Z,44.23
2022-08-29T08:17:34.151Z,42.98
2022-08-29T08:20:01.802Z,43.55
2022-08-29T08:22:29.645Z,43.04
2022-08-29T08:24:58.919Z,42.84
2022-08-29T08:27:26.569Z,43.16
2022-08-29T08:29:54.394Z,44.03
2022-08-29T08:32:23.261Z,43.61
2022-08-29T08:34:59.952Z,43.38
2022-08-29T08:37:28.245Z,43.25
2022-08-29T08:39:59.326Z,42.07
2022-08-29T08:42:42.189Z,42.13
2022-08-29T08:45:11.659Z,43.46
2022-08-29T08:47:43.510Z,43.51
2022-08-29T08:50:20.013Z,43.22
2022-08-29T08:52:52.604Z,43.53
2022-08-29T08:55:29.231Z,42.82
2022-08-29T08:58:06.349Z,43.01
2022-08-29T09:00:43.241Z,43.40
2022-08-29T09:03:26.322Z,42.15
2022-08-29T09:06:08.208Z,41.93
2022-08-29T09:08:44.478Z,40.34
2022-08-29T09:11:23.463Z,40.98
2022-08-29T09:13:59.842Z,39.36
2022-08-29T09:16:32.558Z,38.82
2022-08-29T09:19:04.470Z,39.79
2022-08-29T09:21:47.162Z,39.55
2022-08-29T09:24:24.473Z,38.79
2022-08-29T09:26:53.814Z,38.60
2022-08-29T09:29:21.844Z,38.32
2022-08-29T09:32:08.461Z,38.03
2022-08-29T09:34:57.455Z,37.86
2022-08-29T09:37:29.338Z,38.12
2022-08-29T09:40:02.036Z,37.54
2022-08-29T09:42:37.786Z,36.73
2022-08-29T09:45:17.078Z,35.79
2022-08-29T09:47:45.339Z,35.81
2022-08-29T09:50:21.064Z,36.05
2022-08-29T09:52:53.570Z,36.75
2022-08-29T09:55:29.595Z,36.25
2022-08-29T09:58:05.089Z,35.66
2022-08-29T10:00:36.813Z,36.29
2022-08-29T10:03:07.930Z,35.84
2022-08-29T10:05:41.404Z,35.24
2022-08-29T10:08:26.545Z,34.32
2022-08-29T10:10:57.313Z,35.13
2022-08-29T10:13:35.513Z,36.01
2022-08-29T10:16:13.860Z,34.67
2022-08-29T10:18:48.610Z,36.36
2022-08-29T10:21:33.639Z,36.40
2022-08-29T10:24:19.645Z,35.33
2022-08-29T10:26:56.437Z,33.90
2022-08-29T10:29:39.888Z,35.08
2022-08-29T10:32:15.407Z,33.64
2022-08-29T10:35:01.543Z,33.49
2022-08-29T10:37:38.018Z,32.71
2022-08-29T10:40:10.453Z,31.79
2022-08-29T10:42:47.886Z,32.98
2022-08-29T10:45:26.389Z,32.99
2022-08-29T10:48:02.981Z,32.06
2022-08-29T10:50:44.509Z,31.62
2022-08-29T10:53:18.219Z,32.26
2022-08-29T10:55:53.507Z,32.09
2022-08-29T10:58:39.951Z,31.28
2022-08-29T11:01:15.803Z,32.23
2022-08-29T11:03:50.339Z,31.86
2022-08-29T11:06:22.678Z,31.27
2022-08-29T11:08:56.685Z,31.12
2022-08-29T11:11:27.189Z,30.31
2022-08-29T11:14:04.949Z,28.59
2022-08-29T11:16:41.133Z,29.69
2022-08-29T11:19:20.141Z,29.68
2022-08-29T11:21:56.575Z,30.30
2022-08-29T11:24:34.159Z,30.20
2022-08-29T11:27:11.143Z,30.42
2022-08-29T11:29:47.179Z,29.79
2022-08-29T11:32:24.778Z,29.48
2022-08-29T11:35:06.462Z,30.07
2022-08-29T11:38:13.655Z,29.93
2022-08-29T11:43:45.863Z,28.99
2022-08-29T11:46:15.148Z,26.98
2022-08-29T11:48:46.249Z,26.55
2022-08-29T11:51:37.411Z,26.78
2022-08-29T11:54:42.806Z,27.48
2022-08-29T11:57:39.758Z,29.24
2022-08-29T12:00:39.229Z,29.88
2022-08-29T12:03:56.690Z,29.79
2022-08-29T12:06:53.323Z,29.59
2022-08-29T12:09:43.893Z,28.32
2022-08-29T12:12:31.562Z,28.76
2022-08-29T12:14:59.282Z,27.65
2022-08-29T12:18:01.485Z,27.53
2022-08-29T12:20:40.631Z,28.27
2022-08-29T12:23:20.225Z,27.53
2022-08-29T12:26:09.573Z,27.84
2022-08-29T12:28:44.273Z,29.04
2022-08-29T12:32:08.622Z,27.58
2022-08-29T12:34:46.325Z,27.94
2022-08-29T12:37:30.711Z,28.57
2022-08-29T12:40:23.491Z,27.83
2022-08-29T12:43:08.978Z,26.99
2022-08-29T12:45:39.284Z,27.16
2022-08-29T12:48:09.792Z,28.51
2022-08-29T12:50:43.748Z,27.93
2022-08-29T12:53:19.091Z,27.87
2022-08-29T12:55:50.652Z,28.42
2022-08-29T12:58:34.808Z,28.85
2022-08-29T13:01:02.969Z,28.22
2022-08-29T13:03:30.711Z,28.33
2022-08-29T13:06:05.266Z,29.06
2022-08-29T13:08:37.188Z,29.55
2022-08-29T13:11:09.248Z,28.46
2022-08-29T13:13:37.930Z,28.55
2022-08-29T13:16:08.251Z,27.88
2022-08-29T13:18:49.031Z,28.40
2022-08-29T13:21:27.093Z,27.69
2022-08-29T13:24:02.811Z,27.72
2022-08-29T13:26:34.150Z,27.68
2022-08-29T13:29:20.797Z,26.87
2022-08-29T13:32:11.611Z,27.24
2022-08-29T13:34:39.478Z,27.49
2022-08-29T13:37:16.421Z,28.06
2022-08-29T13:39:49.741Z,27.87
2022-08-29T13:42:26.172Z,27.43
2022-08-29T13:45:12.373Z,26.80
2022-08-29T13:48:00.298Z,27.69
2022-08-29T13:50:29.066Z,26.97
2022-08-29T13:52:58.530Z,27.38
2022-08-29T13:55:26.497Z,27.02
2022-08-29T13:57:56.633Z,27.60
2022-08-29T14:00:34.832Z,26.78
2022-08-29T14:03:05.337Z,27.22
2022-08-29T14:05:35.025Z,27.48
2022-08-29T14:08:02.699Z,27.22
2022-08-29T14:10:30.293Z,27.16
2022-08-29T14:12:59.306Z,27.89
2022-08-29T14:15:26.942Z,27.31
2022-08-29T14:17:54.659Z,27.65
2022-08-29T14:20:22.942Z,27.65
2022-08-29T14:22:50.886Z,27.25
2022-08-29T14:25:20.078Z,28.78
2022-08-29T14:27:48.337Z,27.63
2022-08-29T14:30:20.320Z,28.69
2022-08-29T14:32:47.958Z,28.08
2022-08-29T14:35:25.916Z,27.85
2022-08-29T14:37:54.056Z,27.94
2022-08-29T14:40:22.129Z,28.06
2022-08-29T14:42:49.957Z,28.25
2022-08-29T14:45:19.233Z,28.85
2022-08-29T14:47:47.193Z,28.19
2022-08-29T14:50:16.546Z,28.94
2022-08-29T14:52:44.839Z,28.53
2022-08-29T14:55:14.245Z,27.99
2022-08-29T14:57:42.465Z,28.84
2022-08-29T15:00:13.807Z,27.97
2022-08-29T15:02:43.190Z,27.99
2022-08-29T15:05:11.860Z,27.84
2022-08-29T15:07:39.675Z,28.43
2022-08-29T15:10:09.016Z,28.05
2022-08-29T15:12:37.054Z,27.43
2022-08-29T15:15:05.218Z,28.19
2022-08-29T15:17:32.962Z,27.44
2022-08-29T15:22:49.865Z,28.46
2022-08-29T15:25:17.682Z,28.20
2022-08-29T15:27:47.581Z,28.55
2022-08-29T15:30:20.941Z,29.37
2022-08-29T15:32:49.283Z,28.34
2022-08-29T15:35:18.654Z,29.27
2022-08-29T15:37:46.326Z,30.00
2022-08-29T15:40:14.325Z,29.80
2022-08-29T15:42:42.273Z,29.73
2022-08-29T15:45:11.013Z,29.16
2022-08-29T15:47:39.575Z,28.69
2022-08-29T15:50:09.845Z,29.51
2022-08-29T15:52:39.212Z,29.99
2022-08-29T15:55:07.772Z,29.77
2022-08-29T15:57:51.205Z,29.83
2022-08-29T16:00:30.341Z,29.67
2022-08-29T16:03:04.371Z,29.97
2022-08-29T16:05:33.220Z,30.87
2022-08-29T16:08:02.813Z,30.06
2022-08-29T16:10:31.556Z,30.65
2022-08-29T16:13:00.061Z,30.54
2022-08-29T16:15:30.842Z,30.06
2022-08-29T16:17:59.902Z,29.88
2022-08-29T16:20:27.670Z,30.78
2022-08-29T16:22:56.156Z,30.76
2022-08-29T16:25:26.093Z,31.14
2022-08-29T16:27:54.130Z,31.17
2022-08-29T16:30:22.557Z,31.76
2022-08-29T16:32:51.221Z,31.53
2022-08-29T16:35:20.190Z,31.71
2022-08-29T16:37:47.850Z,31.71
2022-08-29T16:40:32.142Z,31.61
2022-08-29T16:42:59.982Z,32.04
2022-08-29T16:45:27.655Z,32.47
2022-08-29T16:47:57.548Z,32.70
2022-08-29T16:50:26.151Z,32.45
2022-08-29T16:52:54.426Z,32.70
2022-08-29T16:55:22.793Z,32.27
2022-08-29T16:58:05.918Z,32.60
2022-08-29T17:00:33.707Z,32.77
2022-08-29T17:03:01.512Z,33.21
2022-08-29T17:05:29.234Z,32.98
2022-08-29T17:07:55.783Z,33.07
2022-08-29T17:10:22.341Z,33.06
2022-08-29T17:12:50.264Z,33.58
2022-08-29T17:15:17.033Z,33.52
2022-08-29T17:17:44.900Z,33.47
2022-08-29T17:20:12.988Z,34.02
2022-08-29T17:22:40.619Z,34.36
2022-08-29T17:25:09.108Z,33.94
2022-08-29T17:27:37.092Z,34.15
2022-08-29T17:30:07.424Z,34.51
2022-08-29T17:32:35.119Z,35.11
2022-08-29T17:35:02.877Z,35.45
2022-08-29T17:37:35.916Z,35.15
2022-08-29T17:40:05.504Z,35.41
2022-08-29T17:42:33.397Z,35.84
2022-08-29T17:45:01.204Z,35.81
2022-08-29T17:47:30.307Z,36.02
2022-08-29T17:49:57.999Z,35.87
2022-08-29T17:52:25.762Z,36.17
2022-08-29T17:54:53.420Z,36.55
2022-08-29T17:57:21.110Z,36.78
2022-08-29T17:59:48.829Z,36.73
2022-08-29T18:02:16.692Z,36.66
2022-08-29T18:04:45.750Z,37.08
2022-08-29T18:07:13.417Z,36.99
2022-08-29T18:09:41.106Z,37.88
2022-08-29T18:12:09.407Z,37.57
2022-08-29T18:14:37.083Z,37.41
2022-08-29T18:17:05.785Z,37.48
2022-08-29T18:19:33.558Z,37.65
2022-08-29T18:22:02.657Z,37.58
2022-08-29T18:24:30.332Z,38.04
2022-08-29T18:26:58.032Z,37.78
2022-08-29T18:29:25.691Z,38.30
2022-08-29T18:31:53.344Z,37.95
2022-08-29T18:34:21.273Z,38.41
2022-08-29T18:36:49.442Z,38.50
2022-08-29T18:39:18.964Z,39.12
2022-08-29T18:41:47.515Z,38.76
2022-08-29T18:44:15.274Z,39.23
2022-08-29T18:46:48.216Z,38.78
2022-08-29T18:49:16.934Z,38.70
2022-08-29T18:51:44.684Z,39.26
2022-08-29T18:54:16.319Z,39.63
2022-08-29T18:56:48.135Z,40.50
2022-08-29T18:59:15.944Z,40.47
2022-08-29T19:01:43.727Z,40.17
2022-08-29T19:04:11.513Z,40.36
2022-08-29T19:06:39.392Z,40.05
2022-08-29T19:09:07.175Z,41.00
2022-08-29T19:11:34.839Z,41.75
2022-08-29T19:14:04.701Z,41.74
2022-08-29T19:16:33.442Z,40.87
2022-08-29T19:19:01.227Z,41.41
2022-08-29T19:21:27.955Z,41.55
2022-08-29T19:23:56.419Z,42.02
2022-08-29T19:26:28.196Z,42.76
2022-08-29T19:28:58.714Z,43.97
2022-08-29T19:31:29.448Z,43.96
2022-08-29T19:33:58.255Z,45.08
2022-08-29T19:36:27.010Z,44.57
2022-08-29T19:38:54.849Z,44.32
2022-08-29T19:41:22.727Z,44.94
2022-08-29T19:43:53.070Z,44.76
2022-08-29T19:46:24.139Z,44.87
2022-08-29T19:48:53.483Z,45.30
2022-08-29T19:53:53.372Z,45.72
2022-08-29T19:56:21.183Z,46.49
2022-08-29T19:58:49.547Z,46.59
2022-08-29T20:01:17.720Z,46.50
2022-08-29T20:03:45.642Z,46.78
2022-08-29T20:06:14.796Z,47.22
2022-08-29T20:08:46.701Z,47.41
2022-08-29T20:11:18.965Z,47.91
2022-08-29T20:13:50.483Z,48.73
2022-08-29T20:16:20.931Z,48.91
2022-08-29T20:18:49.430Z,49.47
2022-08-29T20:21:19.759Z,49.99
2022-08-29T20:23:49.974Z,50.58
2022-08-29T20:26:19.528Z,51.23
2022-08-29T20:28:48.806Z,53.07
2022-08-29T20:31:16.571Z,52.32
2022-08-29T20:33:44.731Z,52.50
2022-08-29T20:36:30.635Z,53.13
2022-08-29T20:38:59.706Z,53.65
2022-08-29T20:41:28.714Z,53.97
2022-08-29T20:43:56.415Z,54.32
2022-08-29T20:46:24.087Z,55.13
2022-08-29T20:48:51.596Z,56.39
2022-08-29T20:51:19.078Z,58.36
2022-08-29T20:53:46.656Z,60.15
2022-08-29T20:56:15.500Z,59.45
2022-08-29T20:58:42.937Z,61.32
2022-08-29T21:01:10.489Z,62.58
2022-08-29T21:03:55.705Z,63.26
2022-08-29T21:06:23.148Z,63.81
2022-08-29T21:08:51.211Z,65.54
2022-08-29T21:11:20.921Z,66.68
2022-08-29T21:13:53.021Z,68.01
2022-08-29T21:16:21.285Z,67.79
2022-08-29T21:18:52.203Z,69.02
2022-08-29T21:21:24.716Z,69.14
2022-08-29T21:23:53.221Z,68.96
2022-08-29T21:26:22.173Z,69.26
2022-08-29T21:28:49.782Z,69.98
2022-08-29T21:31:18.300Z,70.36
2022-08-29T21:33:46.658Z,70.48
2022-08-29T21:36:15.998Z,71.90
2022-08-29T21:38:43.628Z,72.18
2022-08-29T21:41:11.918Z,72.99
2022-08-29T21:43:42.698Z,73.22
2022-08-29T21:46:17.820Z,73.59
2022-08-29T21:48:46.962Z,74.03
2022-08-29T21:51:18.565Z,74.32
2022-08-29T21:53:47.324Z,74.53
2022-08-29T21:56:14.955Z,74.86
2022-08-29T21:58:44.676Z,75.29
2022-08-29T22:01:12.350Z,75.29
2022-08-29T22:03:40.339Z,75.87
2022-08-29T22:06:09.115Z,76.74
2022-08-29T22:08:38.894Z,77.10
2022-08-29T22:11:13.818Z,77.31
2022-08-29T22:13:41.567Z,76.12
2022-08-29T22:16:29.004Z,76.56
2022-08-29T22:19:02.189Z,76.73
2022-08-29T22:21:32.982Z,77.21
2022-08-29T22:24:01.697Z,77.63
2022-08-29T22:26:30.095Z,77.55
2022-08-29T22:28:57.752Z,78.04
2022-08-29T22:31:27.241Z,79.12
2022-08-29T22:33:54.999Z,78.46
2022-08-29T22:36:22.662Z,78.12
2022-08-29T22:38:55.406Z,80.28
2022-08-29T22:41:24.981Z,80.61
2022-08-29T22:44:11.418Z,81.18
2022-08-29T22:46:45.050Z,80.74
2022-08-29T22:49:13.008Z,80.78
2022-08-29T22:51:41.013Z,80.87
2022-08-29T22:54:26.366Z,80.51
2022-08-29T22:56:54.589Z,80.82
2022-08-29T22:59:22.681Z,81.18
2022-08-29T23:01:51.941Z,81.29
2022-08-29T23:04:20.103Z,82.32
2022-08-29T23:06:47.837Z,82.25
2022-08-29T23:09:15.738Z,81.99
2022-08-29T23:11:44.075Z,82.06
2022-08-29T23:14:12.709Z,81.64
2022-08-29T23:16:40.892Z,82.16
2022-08-29T23:19:10.182Z,83.12
2022-08-29T23:21:39.689Z,82.52
2022-08-29T23:24:09.159Z,83.03
2022-08-29T23:26:36.834Z,83.35
2022-08-29T23:29:04.571Z,83.55
2022-08-29T23:31:32.165Z,84.36
2022-08-29T23:33:59.749Z,85.01
2022-08-29T23:36:28.554Z,85.17
2022-08-29T23:38:56.027Z,84.82
2022-08-29T23:41:23.955Z,85.34
2022-08-29T23:43:51.788Z,85.55
2022-08-29T23:46:19.343Z,86.34
2022-08-29T23:48:46.947Z,86.30
2022-08-29T23:51:15.029Z,85.83
2022-08-29T23:53:44.465Z,86.09
2022-08-29T23:56:13.658Z,86.63
2022-08-29T23:58:41.437Z,86.94
